sensor_id;sensor_type;location;lat;lon;timestamp;temperature;humidity
36292;DHT22;22327;51.208;6.418;2023-11-18T00:02:42;10.40;99.90
36292;DHT22;22327;51.208;6.418;2023-11-18T00:05:43;10.50;99.90
36292;DHT22;22327;51.208;6.418;2023-11-18T00:08:43;10.50;99.90
36292;DHT22;22327;51.208;6.418;2023-11-18T00:11:44;10.50;99.90
36292;DHT22;22327;51.208;6.418;2023-11-18T00:14:44;10.40;99.90
36292;DHT22;22327;51.208;6.418;2023-11-18T00:17:46;10.40;99.90
36292;DHT22;22327;51.208;6.418;2023-11-18T00:20:46;10.40;99.90
36292;DHT22;22327;51.208;6.418;2023-11-18T00:23:47;10.30;99.90
36292;DHT22;22327;51.208;6.418;2023-11-18T00:26:48;10.20;99.90
36292;DHT22;22327;51.208;6.418;2023-11-18T00:29:49;10.10;99.90
36292;DHT22;22327;51.208;6.418;2023-11-18T00:32:50;10.00;99.90
36292;DHT22;22327;51.208;6.418;2023-11-18T00:35:50;10.00;99.90
36292;DHT22;22327;51.208;6.418;2023-11-18T00:38:51;9.90;99.90
36292;DHT22;22327;51.208;6.418;2023-11-18T00:41:51;9.80;99.90
36292;DHT22;22327;51.208;6.418;2023-11-18T00:44:52;9.80;99.90
36292;DHT22;22327;51.208;6.418;2023-11-18T00:47:55;9.80;99.90
36292;DHT22;22327;51.208;6.418;2023-11-18T00:50:56;9.70;99.90
36292;DHT22;22327;51.208;6.418;2023-11-18T00:53:57;9.70;99.90
36292;DHT22;22327;51.208;6.418;2023-11-18T00:56:57;9.60;99.90
36292;DHT22;22327;51.208;6.418;2023-11-18T00:59:58;9.50;99.90
36292;DHT22;22327;51.208;6.418;2023-11-18T01:03:01;9.40;99.90
36292;DHT22;22327;51.208;6.418;2023-11-18T01:06:02;9.20;99.90
36292;DHT22;22327;51.208;6.418;2023-11-18T01:09:05;9.20;99.90
36292;DHT22;22327;51.208;6.418;2023-11-18T01:12:07;9.00;99.90
36292;DHT22;22327;51.208;6.418;2023-11-18T01:15:10;8.90;99.90
36292;DHT22;22327;51.208;6.418;2023-11-18T01:18:13;8.90;99.90
36292;DHT22;22327;51.208;6.418;2023-11-18T01:21:14;8.80;99.90
36292;DHT22;22327;51.208;6.418;2023-11-18T01:24:17;8.80;99.90
36292;DHT22;22327;51.208;6.418;2023-11-18T01:27:19;8.80;99.90
36292;DHT22;22327;51.208;6.418;2023-11-18T01:30:20;8.80;99.90
36292;DHT22;22327;51.208;6.418;2023-11-18T01:33:20;8.70;99.90
36292;DHT22;22327;51.208;6.418;2023-11-18T01:36:21;8.70;99.90
36292;DHT22;22327;51.208;6.418;2023-11-18T01:39:21;8.60;99.90
36292;DHT22;22327;51.208;6.418;2023-11-18T01:42:22;8.60;99.90
36292;DHT22;22327;51.208;6.418;2023-11-18T01:45:22;8.50;99.90
36292;DHT22;22327;51.208;6.418;2023-11-18T01:48:23;8.40;99.90
36292;DHT22;22327;51.208;6.418;2023-11-18T01:51:27;8.40;99.90
36292;DHT22;22327;51.208;6.418;2023-11-18T01:54:28;8.40;99.90
36292;DHT22;22327;51.208;6.418;2023-11-18T01:57:29;8.40;99.90
36292;DHT22;22327;51.208;6.418;2023-11-18T02:00:29;8.40;99.90
36292;DHT22;22327;51.208;6.418;2023-11-18T02:03:31;8.40;99.90
36292;DHT22;22327;51.208;6.418;2023-11-18T02:06:31;8.30;99.90
36292;DHT22;22327;51.208;6.418;2023-11-18T02:09:32;8.30;99.90
36292;DHT22;22327;51.208;6.418;2023-11-18T02:12:44;8.30;99.90
36292;DHT22;22327;51.208;6.418;2023-11-18T02:15:48;8.40;99.90
36292;DHT22;22327;51.208;6.418;2023-11-18T02:18:49;8.40;99.90
36292;DHT22;22327;51.208;6.418;2023-11-18T02:21:52;8.40;99.90
36292;DHT22;22327;51.208;6.418;2023-11-18T02:24:54;8.40;99.90
36292;DHT22;22327;51.208;6.418;2023-11-18T02:27:55;8.30;99.90
36292;DHT22;22327;51.208;6.418;2023-11-18T02:31:09;8.30;99.90
36292;DHT22;22327;51.208;6.418;2023-11-18T02:34:17;8.30;99.90
36292;DHT22;22327;51.208;6.418;2023-11-18T02:37:21;8.40;99.90
36292;DHT22;22327;51.208;6.418;2023-11-18T02:40:43;8.30;99.90
36292;DHT22;22327;51.208;6.418;2023-11-18T02:43:44;8.30;99.90
36292;DHT22;22327;51.208;6.418;2023-11-18T02:46:48;8.30;99.90
36292;DHT22;22327;51.208;6.418;2023-11-18T02:49:54;8.40;99.90
36292;DHT22;22327;51.208;6.418;2023-11-18T02:52:55;8.40;99.90
36292;DHT22;22327;51.208;6.418;2023-11-18T02:55:56;8.40;99.90
36292;DHT22;22327;51.208;6.418;2023-11-18T02:59:02;8.40;99.90
36292;DHT22;22327;51.208;6.418;2023-11-18T03:02:05;8.40;99.90
36292;DHT22;22327;51.208;6.418;2023-11-18T03:05:09;8.40;99.90
36292;DHT22;22327;51.208;6.418;2023-11-18T03:08:12;8.40;99.90
36292;DHT22;22327;51.208;6.418;2023-11-18T03:11:12;8.50;99.90
36292;DHT22;22327;51.208;6.418;2023-11-18T03:14:13;8.40;99.90
36292;DHT22;22327;51.208;6.418;2023-11-18T03:17:13;8.40;99.90
36292;DHT22;22327;51.208;6.418;2023-11-18T03:20:14;8.40;99.90
36292;DHT22;22327;51.208;6.418;2023-11-18T03:23:17;8.40;99.90
36292;DHT22;22327;51.208;6.418;2023-11-18T03:26:17;8.40;99.90
36292;DHT22;22327;51.208;6.418;2023-11-18T03:29:19;8.30;99.90
36292;DHT22;22327;51.208;6.418;2023-11-18T03:32:20;8.20;99.90
36292;DHT22;22327;51.208;6.418;2023-11-18T03:35:20;8.20;99.90
36292;DHT22;22327;51.208;6.418;2023-11-18T03:38:21;8.20;99.90
36292;DHT22;22327;51.208;6.418;2023-11-18T03:41:22;8.30;99.90
36292;DHT22;22327;51.208;6.418;2023-11-18T03:44:24;8.20;99.90
36292;DHT22;22327;51.208;6.418;2023-11-18T03:47:24;8.20;99.90
36292;DHT22;22327;51.208;6.418;2023-11-18T03:50:25;8.20;99.90
36292;DHT22;22327;51.208;6.418;2023-11-18T03:53:25;8.30;99.90
36292;DHT22;22327;51.208;6.418;2023-11-18T03:56:26;8.20;99.90
36292;DHT22;22327;51.208;6.418;2023-11-18T03:59:27;8.30;99.90
36292;DHT22;22327;51.208;6.418;2023-11-18T04:02:27;8.30;99.90
36292;DHT22;22327;51.208;6.418;2023-11-18T04:05:29;8.30;99.90
36292;DHT22;22327;51.208;6.418;2023-11-18T04:08:29;8.20;99.90
36292;DHT22;22327;51.208;6.418;2023-11-18T04:11:30;8.20;99.90
36292;DHT22;22327;51.208;6.418;2023-11-18T04:14:30;8.20;99.90
36292;DHT22;22327;51.208;6.418;2023-11-18T04:17:32;8.20;99.90
36292;DHT22;22327;51.208;6.418;2023-11-18T04:20:32;8.20;99.90
36292;DHT22;22327;51.208;6.418;2023-11-18T04:23:33;8.20;99.90
36292;DHT22;22327;51.208;6.418;2023-11-18T04:26:35;8.20;99.90
36292;DHT22;22327;51.208;6.418;2023-11-18T04:29:35;8.20;99.90
36292;DHT22;22327;51.208;6.418;2023-11-18T04:32:37;8.20;99.90
36292;DHT22;22327;51.208;6.418;2023-11-18T04:35:38;8.20;99.90
36292;DHT22;22327;51.208;6.418;2023-11-18T04:38:38;8.30;99.90
36292;DHT22;22327;51.208;6.418;2023-11-18T04:41:39;8.30;99.90
36292;DHT22;22327;51.208;6.418;2023-11-18T04:44:40;8.40;99.90
36292;DHT22;22327;51.208;6.418;2023-11-18T04:47:41;8.30;99.90
36292;DHT22;22327;51.208;6.418;2023-11-18T04:50:43;8.30;99.90
36292;DHT22;22327;51.208;6.418;2023-11-18T04:53:44;8.30;99.90
36292;DHT22;22327;51.208;6.418;2023-11-18T04:56:45;8.40;99.90
36292;DHT22;22327;51.208;6.418;2023-11-18T04:59:46;8.40;99.90
36292;DHT22;22327;51.208;6.418;2023-11-18T05:02:47;8.40;99.90
36292;DHT22;22327;51.208;6.418;2023-11-18T05:05:48;8.40;99.90
36292;DHT22;22327;51.208;6.418;2023-11-18T05:08:50;8.40;99.90
36292;DHT22;22327;51.208;6.418;2023-11-18T05:11:50;8.50;99.90
36292;DHT22;22327;51.208;6.418;2023-11-18T05:14:51;8.50;99.90
36292;DHT22;22327;51.208;6.418;2023-11-18T05:17:52;8.50;99.90
36292;DHT22;22327;51.208;6.418;2023-11-18T05:20:53;8.60;99.90
36292;DHT22;22327;51.208;6.418;2023-11-18T05:23:54;8.60;99.90
36292;DHT22;22327;51.208;6.418;2023-11-18T05:26:55;8.60;99.90
36292;DHT22;22327;51.208;6.418;2023-11-18T05:29:56;8.60;99.90
36292;DHT22;22327;51.208;6.418;2023-11-18T05:33:01;8.60;99.90
36292;DHT22;22327;51.208;6.418;2023-11-18T05:36:04;8.60;99.90
36292;DHT22;22327;51.208;6.418;2023-11-18T05:39:08;8.60;99.90
36292;DHT22;22327;51.208;6.418;2023-11-18T05:42:09;8.70;99.90
36292;DHT22;22327;51.208;6.418;2023-11-18T05:45:11;8.70;99.90
36292;DHT22;22327;51.208;6.418;2023-11-18T05:48:17;8.80;99.90
36292;DHT22;22327;51.208;6.418;2023-11-18T05:51:23;8.70;99.90
36292;DHT22;22327;51.208;6.418;2023-11-18T05:54:24;8.70;99.90
36292;DHT22;22327;51.208;6.418;2023-11-18T05:57:24;8.70;99.90
36292;DHT22;22327;51.208;6.418;2023-11-18T06:00:26;8.80;99.90
36292;DHT22;22327;51.208;6.418;2023-11-18T06:03:31;8.80;99.90
36292;DHT22;22327;51.208;6.418;2023-11-18T06:06:31;8.80;99.90
36292;DHT22;22327;51.208;6.418;2023-11-18T06:09:32;8.80;99.90
36292;DHT22;22327;51.208;6.418;2023-11-18T06:12:33;8.70;99.90
36292;DHT22;22327;51.208;6.418;2023-11-18T06:15:33;8.70;99.90
36292;DHT22;22327;51.208;6.418;2023-11-18T06:18:37;8.80;99.90
36292;DHT22;22327;51.208;6.418;2023-11-18T06:21:38;8.90;99.90
36292;DHT22;22327;51.208;6.418;2023-11-18T06:24:38;8.90;99.90
36292;DHT22;22327;51.208;6.418;2023-11-18T06:27:39;9.00;99.90
36292;DHT22;22327;51.208;6.418;2023-11-18T06:30:40;9.00;99.90
36292;DHT22;22327;51.208;6.418;2023-11-18T06:33:42;9.00;99.90
36292;DHT22;22327;51.208;6.418;2023-11-18T06:36:43;9.00;99.90
36292;DHT22;22327;51.208;6.418;2023-11-18T06:39:44;9.00;99.90
36292;DHT22;22327;51.208;6.418;2023-11-18T06:42:47;9.00;99.90
36292;DHT22;22327;51.208;6.418;2023-11-18T06:45:48;8.90;99.90
36292;DHT22;22327;51.208;6.418;2023-11-18T06:48:49;8.90;99.90
36292;DHT22;22327;51.208;6.418;2023-11-18T06:51:50;9.00;99.90
36292;DHT22;22327;51.208;6.418;2023-11-18T06:54:51;9.10;99.90
36292;DHT22;22327;51.208;6.418;2023-11-18T06:57:52;9.00;99.90
36292;DHT22;22327;51.208;6.418;2023-11-18T07:00:52;9.10;99.90
36292;DHT22;22327;51.208;6.418;2023-11-18T07:03:53;9.10;99.90
36292;DHT22;22327;51.208;6.418;2023-11-18T07:06:54;9.10;99.90
36292;DHT22;22327;51.208;6.418;2023-11-18T07:09:54;9.10;99.90
36292;DHT22;22327;51.208;6.418;2023-11-18T07:12:56;9.10;99.90
36292;DHT22;22327;51.208;6.418;2023-11-18T07:15:56;9.10;99.90
36292;DHT22;22327;51.208;6.418;2023-11-18T07:18:57;9.10;99.90
36292;DHT22;22327;51.208;6.418;2023-11-18T07:21:58;9.20;99.90
36292;DHT22;22327;51.208;6.418;2023-11-18T07:24:59;9.20;99.90
36292;DHT22;22327;51.208;6.418;2023-11-18T07:28:00;9.10;99.90
36292;DHT22;22327;51.208;6.418;2023-11-18T07:31:01;9.20;99.90
36292;DHT22;22327;51.208;6.418;2023-11-18T07:34:05;9.20;99.90
36292;DHT22;22327;51.208;6.418;2023-11-18T07:37:08;9.20;99.90
36292;DHT22;22327;51.208;6.418;2023-11-18T07:40:09;9.20;99.90
36292;DHT22;22327;51.208;6.418;2023-11-18T07:43:12;9.20;99.90
36292;DHT22;22327;51.208;6.418;2023-11-18T07:46:13;9.20;99.90
36292;DHT22;22327;51.208;6.418;2023-11-18T07:49:13;9.20;99.90
36292;DHT22;22327;51.208;6.418;2023-11-18T07:52:16;9.30;99.90
36292;DHT22;22327;51.208;6.418;2023-11-18T07:55:17;9.30;99.90
36292;DHT22;22327;51.208;6.418;2023-11-18T07:58:18;9.40;99.90
36292;DHT22;22327;51.208;6.418;2023-11-18T08:01:20;9.40;99.90
36292;DHT22;22327;51.208;6.418;2023-11-18T08:04:21;9.50;99.90
36292;DHT22;22327;51.208;6.418;2023-11-18T08:07:22;9.60;99.90
36292;DHT22;22327;51.208;6.418;2023-11-18T08:10:23;9.60;99.90
36292;DHT22;22327;51.208;6.418;2023-11-18T08:13:25;9.50;99.90
36292;DHT22;22327;51.208;6.418;2023-11-18T08:16:26;9.50;99.90
36292;DHT22;22327;51.208;6.418;2023-11-18T08:19:29;9.60;99.90
36292;DHT22;22327;51.208;6.418;2023-11-18T08:22:29;9.60;99.90
36292;DHT22;22327;51.208;6.418;2023-11-18T08:25:31;9.60;99.90
36292;DHT22;22327;51.208;6.418;2023-11-18T08:28:34;9.70;99.90
36292;DHT22;22327;51.208;6.418;2023-11-18T08:31:34;9.80;99.90
36292;DHT22;22327;51.208;6.418;2023-11-18T08:34:35;9.80;99.90
36292;DHT22;22327;51.208;6.418;2023-11-18T08:37:37;9.90;99.90
36292;DHT22;22327;51.208;6.418;2023-11-18T08:40:38;10.00;99.90
36292;DHT22;22327;51.208;6.418;2023-11-18T08:43:39;9.90;99.90
36292;DHT22;22327;51.208;6.418;2023-11-18T08:46:41;9.90;99.90
36292;DHT22;22327;51.208;6.418;2023-11-18T08:49:43;10.00;99.90
36292;DHT22;22327;51.208;6.418;2023-11-18T08:52:46;10.00;99.90
36292;DHT22;22327;51.208;6.418;2023-11-18T08:55:47;10.00;99.90
36292;DHT22;22327;51.208;6.418;2023-11-18T08:58:57;10.00;99.90
36292;DHT22;22327;51.208;6.418;2023-11-18T09:01:59;10.00;99.90
36292;DHT22;22327;51.208;6.418;2023-11-18T09:05:00;10.10;99.90
36292;DHT22;22327;51.208;6.418;2023-11-18T09:08:00;10.10;99.90
36292;DHT22;22327;51.208;6.418;2023-11-18T09:11:07;10.20;99.90
36292;DHT22;22327;51.208;6.418;2023-11-18T09:14:08;10.20;99.90
36292;DHT22;22327;51.208;6.418;2023-11-18T09:17:09;10.30;99.90
36292;DHT22;22327;51.208;6.418;2023-11-18T09:20:10;10.30;99.90
36292;DHT22;22327;51.208;6.418;2023-11-18T09:23:11;10.30;99.90
36292;DHT22;22327;51.208;6.418;2023-11-18T09:26:12;10.50;99.90
36292;DHT22;22327;51.208;6.418;2023-11-18T09:29:12;10.50;99.90
36292;DHT22;22327;51.208;6.418;2023-11-18T09:32:14;10.50;99.90
36292;DHT22;22327;51.208;6.418;2023-11-18T09:35:15;10.60;99.90
36292;DHT22;22327;51.208;6.418;2023-11-18T09:38:17;10.60;99.90
36292;DHT22;22327;51.208;6.418;2023-11-18T09:41:18;10.70;99.90
36292;DHT22;22327;51.208;6.418;2023-11-18T09:44:18;10.80;99.90
36292;DHT22;22327;51.208;6.418;2023-11-18T09:47:21;10.90;99.90
36292;DHT22;22327;51.208;6.418;2023-11-18T09:50:27;10.80;99.90
36292;DHT22;22327;51.208;6.418;2023-11-18T09:53:29;10.90;99.90
36292;DHT22;22327;51.208;6.418;2023-11-18T10:02:48;11.10;99.90
36292;DHT22;22327;51.208;6.418;2023-11-18T10:05:51;11.10;99.90
36292;DHT22;22327;51.208;6.418;2023-11-18T10:08:55;11.10;99.90
36292;DHT22;22327;51.208;6.418;2023-11-18T10:11:56;11.20;99.90
36292;DHT22;22327;51.208;6.418;2023-11-18T10:15:00;11.30;99.90
36292;DHT22;22327;51.208;6.418;2023-11-18T10:18:04;11.30;99.90
36292;DHT22;22327;51.208;6.418;2023-11-18T10:21:07;11.30;99.90
36292;DHT22;22327;51.208;6.418;2023-11-18T10:24:11;11.30;99.90
36292;DHT22;22327;51.208;6.418;2023-11-18T10:27:15;11.30;99.90
36292;DHT22;22327;51.208;6.418;2023-11-18T10:30:15;11.30;99.90
36292;DHT22;22327;51.208;6.418;2023-11-18T10:33:22;11.20;99.90
36292;DHT22;22327;51.208;6.418;2023-11-18T10:36:23;11.20;99.90
36292;DHT22;22327;51.208;6.418;2023-11-18T10:39:28;11.30;99.90
36292;DHT22;22327;51.208;6.418;2023-11-18T10:42:31;11.30;99.90
36292;DHT22;22327;51.208;6.418;2023-11-18T10:45:33;11.30;99.90
36292;DHT22;22327;51.208;6.418;2023-11-18T10:48:33;11.30;99.90
36292;DHT22;22327;51.208;6.418;2023-11-18T10:51:35;11.50;99.90
36292;DHT22;22327;51.208;6.418;2023-11-18T10:54:36;11.50;99.90
36292;DHT22;22327;51.208;6.418;2023-11-18T10:57:37;11.70;99.90
36292;DHT22;22327;51.208;6.418;2023-11-18T11:00:51;11.70;99.90
36292;DHT22;22327;51.208;6.418;2023-11-18T11:03:56;11.70;99.90
36292;DHT22;22327;51.208;6.418;2023-11-18T11:06:56;11.80;99.90
36292;DHT22;22327;51.208;6.418;2023-11-18T11:09:58;11.80;99.90
36292;DHT22;22327;51.208;6.418;2023-11-18T11:13:01;11.80;99.90
36292;DHT22;22327;51.208;6.418;2023-11-18T11:16:02;11.70;99.90
36292;DHT22;22327;51.208;6.418;2023-11-18T11:19:07;11.70;99.90
36292;DHT22;22327;51.208;6.418;2023-11-18T11:22:10;11.80;99.90
36292;DHT22;22327;51.208;6.418;2023-11-18T11:25:43;11.90;99.90
36292;DHT22;22327;51.208;6.418;2023-11-18T11:35:22;12.00;99.90
36292;DHT22;22327;51.208;6.418;2023-11-18T11:38:24;12.10;99.90
36292;DHT22;22327;51.208;6.418;2023-11-18T11:41:28;12.10;99.90
36292;DHT22;22327;51.208;6.418;2023-11-18T11:44:30;12.20;99.90
36292;DHT22;22327;51.208;6.418;2023-11-18T11:47:31;12.20;99.90
36292;DHT22;22327;51.208;6.418;2023-11-18T11:50:37;12.20;99.90
36292;DHT22;22327;51.208;6.418;2023-11-18T11:53:55;12.20;99.90
36292;DHT22;22327;51.208;6.418;2023-11-18T11:56:58;12.20;99.90
36292;DHT22;22327;51.208;6.418;2023-11-18T12:00:09;12.20;99.90
36292;DHT22;22327;51.208;6.418;2023-11-18T12:03:15;12.20;99.90
36292;DHT22;22327;51.208;6.418;2023-11-18T12:06:20;12.20;99.90
36292;DHT22;22327;51.208;6.418;2023-11-18T12:09:29;12.20;99.90
36292;DHT22;22327;51.208;6.418;2023-11-18T12:12:33;12.20;99.90
36292;DHT22;22327;51.208;6.418;2023-11-18T12:15:53;12.10;99.90
36292;DHT22;22327;51.208;6.418;2023-11-18T12:19:30;12.10;99.90
36292;DHT22;22327;51.208;6.418;2023-11-18T12:23:04;12.00;99.90
36292;DHT22;22327;51.208;6.418;2023-11-18T12:26:39;12.10;99.90
36292;DHT22;22327;51.208;6.418;2023-11-18T12:29:43;12.20;99.90
36292;DHT22;22327;51.208;6.418;2023-11-18T12:36:37;12.20;99.90
36292;DHT22;22327;51.208;6.418;2023-11-18T12:43:15;12.00;99.90
36292;DHT22;22327;51.208;6.418;2023-11-18T12:50:09;11.90;99.90
36292;DHT22;22327;51.208;6.418;2023-11-18T12:53:17;11.80;99.90
36292;DHT22;22327;51.208;6.418;2023-11-18T12:56:19;11.70;99.90
36292;DHT22;22327;51.208;6.418;2023-11-18T12:59:20;11.70;99.90
36292;DHT22;22327;51.208;6.418;2023-11-18T13:02:21;11.60;99.90
36292;DHT22;22327;51.208;6.418;2023-11-18T13:05:23;11.70;99.90
36292;DHT22;22327;51.208;6.418;2023-11-18T13:08:30;11.70;99.90
36292;DHT22;22327;51.208;6.418;2023-11-18T13:11:30;11.60;99.90
36292;DHT22;22327;51.208;6.418;2023-11-18T13:14:33;11.60;99.90
36292;DHT22;22327;51.208;6.418;2023-11-18T13:17:36;11.50;99.90
36292;DHT22;22327;51.208;6.418;2023-11-18T13:20:38;11.50;99.90
36292;DHT22;22327;51.208;6.418;2023-11-18T13:23:39;11.50;99.90
36292;DHT22;22327;51.208;6.418;2023-11-18T13:26:40;11.40;99.90
36292;DHT22;22327;51.208;6.418;2023-11-18T13:29:44;11.40;99.90
36292;DHT22;22327;51.208;6.418;2023-11-18T13:32:45;11.40;99.90
36292;DHT22;22327;51.208;6.418;2023-11-18T13:35:46;11.30;99.90
36292;DHT22;22327;51.208;6.418;2023-11-18T13:38:48;11.40;99.90
36292;DHT22;22327;51.208;6.418;2023-11-18T13:41:50;11.30;99.90
36292;DHT22;22327;51.208;6.418;2023-11-18T13:44:51;11.30;99.90
36292;DHT22;22327;51.208;6.418;2023-11-18T13:47:55;11.30;99.90
36292;DHT22;22327;51.208;6.418;2023-11-18T13:50:58;11.30;99.90
36292;DHT22;22327;51.208;6.418;2023-11-18T13:53:59;11.30;99.90
36292;DHT22;22327;51.208;6.418;2023-11-18T13:57:00;11.30;99.90
36292;DHT22;22327;51.208;6.418;2023-11-18T14:00:00;11.30;99.90
36292;DHT22;22327;51.208;6.418;2023-11-18T14:03:01;11.30;99.90
36292;DHT22;22327;51.208;6.418;2023-11-18T14:06:08;11.30;99.90
36292;DHT22;22327;51.208;6.418;2023-11-18T14:09:12;11.30;99.90
36292;DHT22;22327;51.208;6.418;2023-11-18T14:12:13;11.30;99.90
36292;DHT22;22327;51.208;6.418;2023-11-18T14:15:14;11.30;99.90
36292;DHT22;22327;51.208;6.418;2023-11-18T14:18:16;11.30;99.90
36292;DHT22;22327;51.208;6.418;2023-11-18T14:21:18;11.20;99.90
36292;DHT22;22327;51.208;6.418;2023-11-18T14:24:18;11.20;99.90
36292;DHT22;22327;51.208;6.418;2023-11-18T14:27:19;11.20;99.90
36292;DHT22;22327;51.208;6.418;2023-11-18T14:30:20;11.20;99.90
36292;DHT22;22327;51.208;6.418;2023-11-18T14:33:24;11.20;99.90
36292;DHT22;22327;51.208;6.418;2023-11-18T14:36:26;11.20;99.90
36292;DHT22;22327;51.208;6.418;2023-11-18T14:39:28;11.00;99.90
36292;DHT22;22327;51.208;6.418;2023-11-18T14:42:31;11.00;99.90
36292;DHT22;22327;51.208;6.418;2023-11-18T14:45:33;11.00;99.90
36292;DHT22;22327;51.208;6.418;2023-11-18T14:48:35;10.90;99.90
36292;DHT22;22327;51.208;6.418;2023-11-18T14:51:36;10.90;99.90
36292;DHT22;22327;51.208;6.418;2023-11-18T14:54:36;11.00;99.90
36292;DHT22;22327;51.208;6.418;2023-11-18T14:57:40;10.90;99.90
36292;DHT22;22327;51.208;6.418;2023-11-18T15:00:41;10.90;99.90
36292;DHT22;22327;51.208;6.418;2023-11-18T15:03:42;10.90;99.90
36292;DHT22;22327;51.208;6.418;2023-11-18T15:06:43;10.80;99.90
36292;DHT22;22327;51.208;6.418;2023-11-18T15:09:43;10.80;99.90
36292;DHT22;22327;51.208;6.418;2023-11-18T15:12:44;10.80;99.90
36292;DHT22;22327;51.208;6.418;2023-11-18T15:15:45;10.70;99.90
36292;DHT22;22327;51.208;6.418;2023-11-18T15:18:52;10.70;99.90
36292;DHT22;22327;51.208;6.418;2023-11-18T15:21:57;10.70;99.90
36292;DHT22;22327;51.208;6.418;2023-11-18T15:24:57;10.70;99.90
36292;DHT22;22327;51.208;6.418;2023-11-18T15:28:00;10.70;99.90
36292;DHT22;22327;51.208;6.418;2023-11-18T15:31:01;10.70;99.90
36292;DHT22;22327;51.208;6.418;2023-11-18T15:34:04;10.70;99.90
36292;DHT22;22327;51.208;6.418;2023-11-18T15:37:05;10.60;99.90
36292;DHT22;22327;51.208;6.418;2023-11-18T15:40:06;10.70;99.90
36292;DHT22;22327;51.208;6.418;2023-11-18T15:43:11;10.60;99.90
36292;DHT22;22327;51.208;6.418;2023-11-18T15:46:12;10.60;99.90
36292;DHT22;22327;51.208;6.418;2023-11-18T15:49:12;10.60;99.90
36292;DHT22;22327;51.208;6.418;2023-11-18T15:52:13;10.60;99.90
36292;DHT22;22327;51.208;6.418;2023-11-18T15:55:18;10.60;99.90
36292;DHT22;22327;51.208;6.418;2023-11-18T15:58:18;10.60;99.90
36292;DHT22;22327;51.208;6.418;2023-11-18T16:01:21;10.80;99.90
36292;DHT22;22327;51.208;6.418;2023-11-18T16:04:22;11.00;99.90
36292;DHT22;22327;51.208;6.418;2023-11-18T16:07:23;11.40;99.90
36292;DHT22;22327;51.208;6.418;2023-11-18T16:10:24;11.50;99.90
36292;DHT22;22327;51.208;6.418;2023-11-18T16:13:25;11.60;99.90
36292;DHT22;22327;51.208;6.418;2023-11-18T16:16:26;11.60;99.90
36292;DHT22;22327;51.208;6.418;2023-11-18T16:19:27;11.60;99.90
36292;DHT22;22327;51.208;6.418;2023-11-18T16:22:28;11.60;99.90
36292;DHT22;22327;51.208;6.418;2023-11-18T16:25:29;11.60;99.90
36292;DHT22;22327;51.208;6.418;2023-11-18T16:28:34;11.70;99.90
36292;DHT22;22327;51.208;6.418;2023-11-18T16:31:34;11.60;99.90
36292;DHT22;22327;51.208;6.418;2023-11-18T16:34:35;11.80;99.90
36292;DHT22;22327;51.208;6.418;2023-11-18T16:37:35;11.70;99.90
36292;DHT22;22327;51.208;6.418;2023-11-18T16:40:36;11.60;99.90
36292;DHT22;22327;51.208;6.418;2023-11-18T16:43:37;11.60;99.90
36292;DHT22;22327;51.208;6.418;2023-11-18T16:46:38;11.60;99.90
36292;DHT22;22327;51.208;6.418;2023-11-18T16:49:40;11.60;99.90
36292;DHT22;22327;51.208;6.418;2023-11-18T16:52:40;11.50;99.90
36292;DHT22;22327;51.208;6.418;2023-11-18T16:55:41;11.50;99.90
36292;DHT22;22327;51.208;6.418;2023-11-18T16:58:41;11.50;99.90
36292;DHT22;22327;51.208;6.418;2023-11-18T17:01:44;11.60;99.90
36292;DHT22;22327;51.208;6.418;2023-11-18T17:04:45;11.60;99.90
36292;DHT22;22327;51.208;6.418;2023-11-18T17:07:45;11.50;99.90
36292;DHT22;22327;51.208;6.418;2023-11-18T17:10:46;11.60;99.90
36292;DHT22;22327;51.208;6.418;2023-11-18T17:13:53;11.60;99.90
36292;DHT22;22327;51.208;6.418;2023-11-18T17:16:54;11.60;99.90
36292;DHT22;22327;51.208;6.418;2023-11-18T17:19:54;11.70;99.90
36292;DHT22;22327;51.208;6.418;2023-11-18T17:22:55;11.80;99.90
36292;DHT22;22327;51.208;6.418;2023-11-18T17:25:55;11.80;99.90
36292;DHT22;22327;51.208;6.418;2023-11-18T17:28:56;11.80;99.90
36292;DHT22;22327;51.208;6.418;2023-11-18T17:31:59;11.70;99.90
36292;DHT22;22327;51.208;6.418;2023-11-18T17:35:00;11.80;99.90
36292;DHT22;22327;51.208;6.418;2023-11-18T17:38:01;11.80;99.90
36292;DHT22;22327;51.208;6.418;2023-11-18T17:41:01;11.80;99.90
36292;DHT22;22327;51.208;6.418;2023-11-18T17:44:02;11.80;99.90
36292;DHT22;22327;51.208;6.418;2023-11-18T17:47:03;11.80;99.90
36292;DHT22;22327;51.208;6.418;2023-11-18T17:50:05;11.90;99.90
36292;DHT22;22327;51.208;6.418;2023-11-18T17:53:09;11.90;99.90
36292;DHT22;22327;51.208;6.418;2023-11-18T17:56:09;11.90;99.90
36292;DHT22;22327;51.208;6.418;2023-11-18T17:59:10;11.90;99.90
36292;DHT22;22327;51.208;6.418;2023-11-18T18:02:10;11.90;99.90
36292;DHT22;22327;51.208;6.418;2023-11-18T18:05:12;12.00;99.90
36292;DHT22;22327;51.208;6.418;2023-11-18T18:08:13;12.10;99.90
36292;DHT22;22327;51.208;6.418;2023-11-18T18:11:16;12.10;99.90
36292;DHT22;22327;51.208;6.418;2023-11-18T18:14:17;12.10;99.90
36292;DHT22;22327;51.208;6.418;2023-11-18T18:17:18;12.20;99.90
36292;DHT22;22327;51.208;6.418;2023-11-18T18:20:18;12.20;99.90
36292;DHT22;22327;51.208;6.418;2023-11-18T18:23:20;12.30;99.90
36292;DHT22;22327;51.208;6.418;2023-11-18T18:26:21;12.30;99.90
36292;DHT22;22327;51.208;6.418;2023-11-18T18:29:21;12.30;99.90
36292;DHT22;22327;51.208;6.418;2023-11-18T18:32:22;12.30;99.90
36292;DHT22;22327;51.208;6.418;2023-11-18T18:35:23;12.40;99.90
36292;DHT22;22327;51.208;6.418;2023-11-18T18:38:26;12.50;99.90
36292;DHT22;22327;51.208;6.418;2023-11-18T18:41:26;12.50;99.90
36292;DHT22;22327;51.208;6.418;2023-11-18T18:44:27;12.60;99.90
36292;DHT22;22327;51.208;6.418;2023-11-18T18:47:27;12.60;99.90
36292;DHT22;22327;51.208;6.418;2023-11-18T18:50:28;12.60;99.90
36292;DHT22;22327;51.208;6.418;2023-11-18T18:53:34;12.60;99.90
36292;DHT22;22327;51.208;6.418;2023-11-18T18:56:35;12.70;99.90
36292;DHT22;22327;51.208;6.418;2023-11-18T18:59:38;12.70;99.90
36292;DHT22;22327;51.208;6.418;2023-11-18T19:02:38;12.80;99.90
36292;DHT22;22327;51.208;6.418;2023-11-18T19:05:40;12.90;99.90
36292;DHT22;22327;51.208;6.418;2023-11-18T19:08:40;12.90;99.90
36292;DHT22;22327;51.208;6.418;2023-11-18T19:11:43;13.00;99.90
36292;DHT22;22327;51.208;6.418;2023-11-18T19:14:44;13.10;99.90
36292;DHT22;22327;51.208;6.418;2023-11-18T19:17:45;13.20;99.90
36292;DHT22;22327;51.208;6.418;2023-11-18T19:20:46;13.30;99.90
36292;DHT22;22327;51.208;6.418;2023-11-18T19:23:46;13.40;99.90
36292;DHT22;22327;51.208;6.418;2023-11-18T19:26:47;13.50;99.90
36292;DHT22;22327;51.208;6.418;2023-11-18T19:29:48;13.60;99.90
36292;DHT22;22327;51.208;6.418;2023-11-18T19:32:48;13.70;99.90
36292;DHT22;22327;51.208;6.418;2023-11-18T19:35:49;13.80;99.90
36292;DHT22;22327;51.208;6.418;2023-11-18T19:38:50;13.80;99.90
36292;DHT22;22327;51.208;6.418;2023-11-18T19:41:50;13.90;99.90
36292;DHT22;22327;51.208;6.418;2023-11-18T19:44:51;14.00;99.90